Airfield :
LOGIN :

Register | Disclaimer

   EN    FR    IT 

 










Legend :    VFR   Marginal VFR   IFR   Intensive IFR   Very Intensive IFR
Visi :
Ceiling :
>= 8 km
>= 3000ft
5 to 8 km
1000 to 3000 ft
1500m to 5 km
500 to 1000 ft
800 to 1500m
200 to 500 ft
< 800m
< 200 ft
Symbols :   Thunderstorms  Fog  Heavy snow  Heavy precipitations  Wind > 20 kt
SIGMETs :     Misc.  Thunderstorms  Icing  Turbulence  Mountain Waves  Volcanic Ashes






- Airport Elevation : 1708 ft
- IATA code : SJJ


LQSA - Sarajevo

CURRENT METAR :
  • 260430Z 33003KT 310V010 7000 BKN008 13/13 Q1017 NOSIG

EXPIRED METARs :
  • 260400Z VRB01KT 7000 FEW005 SCT010 13/13 Q1017 TEMPO BKN006
  • 260330Z VRB01KT 7000 BKN006 13/13 Q1017 NOSIG
  • 260300Z VRB01KT 7000 FEW005 SCT010 BKN020 13/13 Q1017
  • 260230Z 00000KT 7000 SCT007 BKN012 13/13 Q1017
  • 260200Z VRB01KT 7000 -DZ SCT007 BKN010 13/13 Q1017
  • 260130Z VRB01KT 7000 -RA SCT007 BKN010 13/13 Q1017
  • 260100Z VRB01KT 7000 -RA FEW005 SCT010 NKN030 13/13 Q1017
  • 260030Z VRB01KT 7000 SCT010 13/13 Q1017
  • 260000Z 32002KT 7000 BKN009 13/13 Q1017

TAF COR TAF LQSA
Valid from the 26 at 00:00 until the 27 at 00:00 UTC


252300Z 2600/2624 VRB05KT 9999 FEW013 BKN045 TX20/2613Z TN11/2604Z
PROB40
TEMPO 2600/2609 5000 -RA BR BKN008 OVC035
PROB30
TEMPO 2600/2604 3000 SHRA SCT010 FEW025TCU BKN045
TEMPO 2610/2618 5000 SHRA FEW035TCU BKN045
PROB40
TEMPO 2611/2617 VRB15KT 3000 TSRA SCT015 FEW030CB BKN040



MET'MAP, your aeronautical weather chart ! - Copyright ORBIFLY December 2007 - Disclaimer

ORBIFLY MET'MAP TEAM :

Programming & Development : Alexandra Zaïnal
Original concept : Baudouin d'Aumeries
Technical & hardware support : Manuel Goepfert
Assistance : Marc-Olivier Méhu




SOURCES & CREDITS :

   NOAA